AirNav   Air Wisconsin Up To $57,000 Bonus
 
 1138 users online  

NH66 Temple Heliport
Temple, New Hampshire, USA

GOING TO TEMPLE?


FAA INFORMATION EFFECTIVE 02 JANUARY 2020

Location

FAA Identifier: NH66
Lat/Long: 42-47-23.3090N 071-50-04.2740W
42-47.388483N 071-50.071233W
42.7898081,-71.8345206
(estimated)
Elevation: 920 ft. / 280 m (estimated)
Variation: 16W (1990)
From city: 2 miles N of TEMPLE, NH
Time zone: UTC -5 (UTC -4 during Daylight Saving Time)
Zip code: 03084

Heliport Operations

Heliport use: Private use. Permission required prior to landing
Activation date: 02/1992
Control tower: no
ARTCC: BOSTON CENTER
FSS: BANGOR FLIGHT SERVICE STATION
Attendance: UNATNDD
Segmented circle: no

Heliport Communications

WX ASOS at AFN (7 nm W): 135.875 (603-532-6195)
WX AWOS-3PT at ASH (14 nm E): 125.1 (603-578-0473)
WX ASOS at FIT (15 nm S): 135.175 (978-343-9121)
WX ASOS at MHT (20 nm NE): 119.55 (603-621-1766)

Nearby radio navigation aids

VOR radial/distance  VOR name  Freq  Var
GDMr048/17.6GARDNER VOR/DME110.6014W
EENr105/20.1KEENE VORTAC109.4014W
MHTr272/21.0MANCHESTER VOR/DME114.4015W
CONr219/28.2CONCORD VOR/DME112.9015W
LWMr290/32.7LAWRENCE VOR/DME112.5015W

 
NDB name  Hdg/Dist  Freq  Var  ID
FITZY267/14.220915WMJ -- .---

Heliport Services

Runway Information

Helipad H1

Dimensions: 40 x 30 ft. / 12 x 9 m
Surface: turf
Traffic pattern: leftleft

Heliport Ownership and Management from official FAA records

Ownership: Privately-owned
Owner: WILLIAM J. EZELL
47 MOUNTAIN VIEW DRIVE
TEMPLE, NH 03084
Phone 603-878-2986
Manager: WILLIAM J. EZELL
47 MOUNTAIN VIEW DRIVE
TEMPLE, NH 03084
Phone 603-878-2986

Heliport Operational Statistics

Aircraft based on the field: 1
Helicopters: 1
    

Additional Remarks

A52 PLINES 300 FT HIGH LCTD 1823 FT SOUTH.
FOR CD CTC BOSTON APCH AT 603-594-5551.

Instrument Procedures

There are no published instrument procedures at NH66.

Some nearby airports with instrument procedures:

KAFN - Jaffrey Airport-Silver Ranch (7 nm W)
KASH - Boire Field Airport (14 nm E)
KFIT - Fitchburg Municipal Airport (15 nm S)
KGDM - Gardner Municipal Airport (16 nm SW)
KMHT - Manchester Airport (20 nm NE)
 
Loc | Ops | Rwys | IFR | FBO | Links
Com | Nav | Svcs | Stats | Notes
Area around NH66 (Temple Heliport)
 
Road maps at: MapQuest Bing Google
 
Aerial photo
No photo
 
Sectional chart

 
Airport distance calculator
Flying to Temple Heliport? Find the distance to fly.

From to NH66

Sunrise and sunset
Times for 26-Jan-2020
 Local
(UTC-5)
 Zulu
(UTC)
Morning civil twilight06:3811:38
Sunrise07:0912:09
Sunset16:5121:51
Evening civil twilight17:2222:22

Current date and time
Zulu (UTC)  26-Jan-2020 23:30:02
Local (UTC-5)  26-Jan-2020 18:30:02
 
METAR
KAFN 
7nm W 
262252Z AUTO 23004KT 10SM OVC036 02/M03 A2964 RMK AO2 SLP052 T00221033
KASH 
14nm E 
262256Z 00000KT 10SM BKN048 04/M03 A2967 RMK AO2 SLP054 T00441028
KFIT 
15nm S 
262252Z AUTO 00000KT 10SM FEW049 04/M03 A2967 RMK AO2 SLP052 T00391033
KMHT 
20nm NE 
262253Z 25008KT 10SM BKN049 05/M04 A2964 RMK AO2 SLP055 T00501039
KEEN 
20nm W 
262256Z AUTO 14005KT 10SM OVC041 03/M02 A2967 RMK AO2 SLP054 T00281022 $
TAF
KMHT 
20nm NE 
261720Z 2618/2718 28010KT P6SM FEW030 FM270200 22003KT P6SM BKN100
NOTAMs
Click for the latest NOTAMs
NOTAMs are issued by the DoD/FAA and will open in a separate window not controlled by AirNav.

 

 
 

Would you like to see your business listed on this page?

 If your business provides an interesting product or service to pilots, flight crews, aircraft, or users of the Temple Heliport, you should consider listing it here.  To start the listing process, click on the button below
 
Add a business
 

Other Pages about Temple Heliport

Update a link
 
Copyright © AirNav, LLC. All rights reserved. Privacy Policy  Contact